Time;durP1;ratioP1;P1;durP2;ratioP2;P2;SDS_P1;SDS_P2;PMS_P1;PMS_P2;Temp;Humidity;BMP_temperature;BMP_pressure;BME280_temperature;BME280_humidity;BME280_pressure;Samples;Min_cycle;Max_cycle;Signal;HPM_P1;HPM_P2
2023/10/27 00:00:00;;;;;;;47.03;7.78;;;8.00;99.90;;;;;;5063992;28;20081;-84
2023/10/27 00:02:25;;;;;;;47.58;9.43;;;8.10;99.90;;;;;;5082474;28;20409;-84
2023/10/27 00:04:51;;;;;;;47.83;9.00;;;8.10;99.90;;;;;;5068771;28;20039;-84
2023/10/27 00:07:16;;;;;;;43.78;8.07;;;8.20;99.90;;;;;;5083964;28;20030;-84
2023/10/27 00:09:42;;;;;;;63.83;9.52;;;8.20;99.90;;;;;;5060954;28;20035;-84
2023/10/27 00:12:08;;;;;;;51.67;8.65;;;8.20;99.90;;;;;;5106603;28;20028;-84
2023/10/27 00:14:34;;;;;;;57.70;9.82;;;8.20;99.90;;;;;;5058980;28;20020;-84
2023/10/27 00:17:00;;;;;;;66.93;9.30;;;8.20;99.90;;;;;;5088212;28;20027;-84
2023/10/27 00:19:25;;;;;;;59.28;9.85;;;8.30;99.90;;;;;;5065390;28;20032;-84
2023/10/27 00:21:51;;;;;;;69.75;9.27;;;8.30;99.90;;;;;;5081621;28;20028;-84
2023/10/27 00:24:17;;;;;;;62.47;10.45;;;8.30;99.90;;;;;;5082047;28;20066;-84
2023/10/27 00:26:42;;;;;;;40.60;9.38;;;8.40;99.90;;;;;;5072889;28;20625;-84
2023/10/27 00:29:08;;;;;;;51.30;11.57;;;8.40;99.90;;;;;;5082647;28;20028;-84
2023/10/27 00:31:34;;;;;;;64.82;14.05;;;8.50;99.90;;;;;;5088288;28;20020;-84
2023/10/27 00:33:59;;;;;;;62.20;16.75;;;8.50;99.90;;;;;;5067659;28;20020;-84
2023/10/27 00:36:37;;;;;;;53.65;15.57;;;8.60;99.90;;;;;;5080551;28;20032;-84
2023/10/27 00:39:03;;;;;;;62.67;17.35;;;8.60;99.90;;;;;;5085094;28;20032;-84
2023/10/27 00:41:30;;;;;;;106.55;32.17;;;8.60;99.90;;;;;;5084804;28;20498;-84
2023/10/27 00:43:55;;;;;;;56.35;19.23;;;8.70;99.90;;;;;;5071070;28;20024;-84
2023/10/27 00:46:21;;;;;;;114.53;27.83;;;8.70;99.90;;;;;;5085699;28;20073;-84
2023/10/27 00:48:47;;;;;;;123.97;38.20;;;8.80;99.90;;;;;;5081489;28;20047;-84
2023/10/27 00:51:13;;;;;;;124.47;28.75;;;8.80;99.90;;;;;;5087404;28;20022;-84
2023/10/27 00:53:39;;;;;;;104.72;26.58;;;8.80;99.90;;;;;;5084461;28;20039;-84
2023/10/27 00:56:05;;;;;;;95.75;26.58;;;8.90;99.90;;;;;;5091239;28;20071;-84
2023/10/27 00:58:31;;;;;;;100.22;25.40;;;8.90;99.90;;;;;;5082026;28;20032;-84
2023/10/27 01:01:01;;;;;;;114.55;27.90;;;8.90;99.90;;;;;;5086923;28;20026;-83
2023/10/27 01:03:27;;;;;;;98.82;27.55;;;9.00;99.90;;;;;;5107255;28;20405;-84
2023/10/27 01:05:53;;;;;;;105.47;27.42;;;9.00;99.90;;;;;;5082333;28;20378;-84
2023/10/27 01:08:55;;;;;;;102.75;25.20;;;9.00;99.90;;;;;;5090690;28;20026;-84
2023/10/27 01:11:22;;;;;;;112.88;26.38;;;9.00;99.90;;;;;;5075867;28;20048;-84
2023/10/27 01:13:53;;;;;;;104.75;27.90;;;9.00;99.90;;;;;;5085843;28;20023;-84
2023/10/27 01:16:18;;;;;;;161.77;30.98;;;9.00;99.90;;;;;;5083752;28;20039;-83
2023/10/27 01:18:44;;;;;;;128.90;30.63;;;9.00;99.90;;;;;;5082665;28;20371;-84
2023/10/27 01:21:10;;;;;;;145.13;27.58;;;9.00;99.90;;;;;;5102181;28;20803;-84
2023/10/27 01:23:36;;;;;;;106.90;26.42;;;9.00;99.90;;;;;;5084168;28;20067;-84
2023/10/27 01:26:03;;;;;;;143.60;30.63;;;9.00;99.90;;;;;;5069297;28;20114;-84
2023/10/27 01:28:30;;;;;;;107.63;28.65;;;9.00;99.90;;;;;;5082963;28;20034;-84
2023/10/27 01:30:56;;;;;;;90.70;26.80;;;9.00;99.90;;;;;;5097487;28;20036;-84
2023/10/27 01:33:23;;;;;;;91.47;31.30;;;9.00;99.90;;;;;;5083954;28;20030;-84
2023/10/27 01:35:51;;;;;;;78.22;27.75;;;9.00;99.90;;;;;;5080835;28;20077;-84
2023/10/27 01:38:17;;;;;;;95.05;32.22;;;9.00;99.90;;;;;;5092869;28;20034;-84
2023/10/27 01:40:42;;;;;;;82.90;30.25;;;9.00;99.90;;;;;;5082421;28;20036;-84
2023/10/27 01:43:08;;;;;;;104.95;31.48;;;9.00;99.90;;;;;;5082465;28;20386;-84
2023/10/27 01:45:34;;;;;;;88.03;30.83;;;9.00;99.90;;;;;;5080516;28;20645;-84
2023/10/27 01:48:00;;;;;;;83.88;31.05;;;9.00;99.90;;;;;;5085038;28;20035;-84
2023/10/27 01:50:26;;;;;;;71.72;27.23;;;9.00;99.90;;;;;;5081662;28;20036;-84
2023/10/27 01:52:51;;;;;;;68.00;28.23;;;9.00;99.90;;;;;;5106223;28;20031;-84
2023/10/27 01:55:17;;;;;;;80.93;27.17;;;8.90;99.90;;;;;;5082799;28;20091;-84
2023/10/27 01:57:43;;;;;;;98.70;33.92;;;9.00;99.90;;;;;;5081084;28;20020;-84
2023/10/27 02:00:10;;;;;;;73.88;30.10;;;9.00;99.90;;;;;;5084271;28;20063;-84
2023/10/27 02:02:49;;;;;;;85.10;28.48;;;9.00;99.90;;;;;;5082797;28;20352;-84
2023/10/27 02:05:15;;;;;;;62.60;28.95;;;8.90;99.90;;;;;;5069321;28;20039;-83
2023/10/27 02:07:40;;;;;;;77.30;31.55;;;8.90;99.90;;;;;;5083999;28;20023;-84
2023/10/27 02:10:07;;;;;;;69.65;33.38;;;8.90;99.90;;;;;;5061582;28;20442;-84
2023/10/27 02:12:32;;;;;;;57.75;29.77;;;8.90;99.90;;;;;;5085543;28;20026;-84
2023/10/27 02:14:58;;;;;;;82.25;31.63;;;8.90;99.90;;;;;;5065156;28;20028;-84
2023/10/27 02:17:24;;;;;;;69.30;27.88;;;8.90;99.90;;;;;;5082504;28;20114;-84
2023/10/27 02:19:50;;;;;;;65.32;28.02;;;8.80;99.90;;;;;;5079924;28;20028;-84
2023/10/27 02:22:19;;;;;;;53.53;25.90;;;8.90;99.90;;;;;;5084538;28;20027;-85
2023/10/27 02:24:45;;;;;;;60.97;25.75;;;8.80;99.90;;;;;;5080560;28;20028;-84
2023/10/27 02:27:10;;;;;;;62.72;21.33;;;8.80;99.90;;;;;;5086955;28;20348;-84
2023/10/27 02:29:36;;;;;;;48.70;20.20;;;8.70;99.90;;;;;;5081651;28;20024;-84
2023/10/27 02:32:02;;;;;;;50.60;19.35;;;8.80;99.90;;;;;;5082189;28;20036;-84
2023/10/27 02:34:27;;;;;;;52.30;18.30;;;8.70;99.90;;;;;;5083677;28;20088;-84
2023/10/27 02:36:53;;;;;;;55.05;18.30;;;8.70;99.90;;;;;;5084817;28;20024;-84
2023/10/27 02:39:19;;;;;;;49.58;19.65;;;8.60;99.90;;;;;;5114601;27;20080;-84
2023/10/27 02:42:00;;;;;;;44.83;20.33;;;8.60;99.90;;;;;;5086623;28;20043;-84
2023/10/27 02:44:26;;;;;;;64.50;22.20;;;8.60;99.90;;;;;;5080585;28;20035;-84
2023/10/27 02:46:51;;;;;;;47.80;18.88;;;8.60;99.90;;;;;;5075746;28;20387;-84
2023/10/27 02:49:17;;;;;;;56.28;20.13;;;8.60;99.90;;;;;;5058643;28;20068;-84
2023/10/27 02:51:43;;;;;;;47.28;17.58;;;8.50;99.90;;;;;;5071719;28;20100;-84
2023/10/27 02:54:08;;;;;;;45.45;16.73;;;8.50;99.90;;;;;;5081834;28;20482;-84
2023/10/27 02:56:34;;;;;;;45.65;16.77;;;8.50;99.90;;;;;;5083801;28;20493;-83
2023/10/27 02:59:00;;;;;;;44.70;17.35;;;8.50;99.90;;;;;;5102220;28;20028;-83
2023/10/27 03:01:26;;;;;;;42.08;15.55;;;8.50;99.90;;;;;;5113133;27;20535;-84
2023/10/27 03:03:51;;;;;;;45.53;18.35;;;8.40;99.90;;;;;;5083710;28;20382;-83
2023/10/27 03:06:17;;;;;;;43.42;17.55;;;8.40;99.90;;;;;;5080120;28;20362;-82
2023/10/27 03:08:43;;;;;;;48.60;18.05;;;8.40;99.90;;;;;;5085477;28;20086;-84
2023/10/27 03:11:08;;;;;;;53.47;20.42;;;8.40;99.90;;;;;;5065942;28;20026;-84
2023/10/27 03:13:34;;;;;;;44.88;20.08;;;8.40;99.90;;;;;;5077328;28;20055;-83
2023/10/27 03:16:01;;;;;;;51.47;21.52;;;8.40;99.90;;;;;;5064462;28;20081;-83
2023/10/27 03:18:26;;;;;;;40.15;18.65;;;8.40;99.90;;;;;;5078867;28;20099;-83
2023/10/27 03:21:00;;;;;;;41.25;16.83;;;8.40;99.90;;;;;;5079039;28;20058;-84
2023/10/27 03:23:35;;;;;;;43.13;16.73;;;8.40;99.90;;;;;;5081285;28;20039;-83
2023/10/27 03:26:01;;;;;;;47.72;16.30;;;8.40;99.90;;;;;;5061991;28;20046;-84
2023/10/27 03:28:27;;;;;;;46.28;17.80;;;8.40;99.90;;;;;;5081806;28;20102;-84
2023/10/27 03:30:53;;;;;;;52.22;17.08;;;8.40;99.90;;;;;;5063859;28;20028;-83
2023/10/27 03:33:19;;;;;;;37.25;15.18;;;8.40;99.90;;;;;;5082428;28;20493;-83
2023/10/27 03:35:46;;;;;;;38.05;15.30;;;8.40;99.90;;;;;;5099250;28;20085;-83
2023/10/27 03:38:13;;;;;;;52.67;18.20;;;8.40;99.90;;;;;;5082523;28;20023;-84
2023/10/27 03:40:48;;;;;;;41.88;17.25;;;8.40;99.90;;;;;;5079205;28;20077;-84
2023/10/27 03:43:14;;;;;;;45.80;18.98;;;8.40;99.90;;;;;;5084384;28;20027;-83
2023/10/27 03:45:40;;;;;;;36.13;17.45;;;8.40;99.90;;;;;;5079987;28;20047;-84
2023/10/27 03:48:06;;;;;;;36.60;16.55;;;8.40;99.90;;;;;;5077806;28;20027;-84
2023/10/27 03:50:31;;;;;;;46.28;16.98;;;8.40;99.90;;;;;;5080796;28;20027;-83
2023/10/27 03:52:58;;;;;;;34.67;15.77;;;8.40;99.90;;;;;;5089200;28;20024;-84
2023/10/27 03:55:23;;;;;;;48.85;17.73;;;8.40;99.90;;;;;;5091036;28;20586;-84
2023/10/27 03:57:52;;;;;;;51.97;18.08;;;8.40;99.90;;;;;;5081712;28;20026;-83
2023/10/27 04:00:18;;;;;;;36.08;20.05;;;8.40;99.90;;;;;;5076156;28;20051;-84
2023/10/27 04:02:45;;;;;;;38.03;17.75;;;8.40;99.90;;;;;;5083043;28;20028;-84
2023/10/27 04:05:11;;;;;;;39.58;17.08;;;8.40;99.90;;;;;;5079872;28;20028;-84
2023/10/27 04:07:36;;;;;;;44.08;16.65;;;8.40;99.90;;;;;;5086462;28;20027;-83
2023/10/27 04:10:02;;;;;;;51.88;17.88;;;8.40;99.90;;;;;;5080276;28;20071;-84
2023/10/27 04:12:28;;;;;;;36.40;18.23;;;8.40;99.90;;;;;;5099498;28;20035;-84
2023/10/27 04:14:54;;;;;;;37.47;16.85;;;8.40;99.90;;;;;;5077996;28;20395;-84
2023/10/27 04:17:20;;;;;;;53.13;18.17;;;8.40;99.90;;;;;;5080155;28;20024;-84
2023/10/27 04:19:45;;;;;;;40.95;15.00;;;8.30;99.90;;;;;;5079869;28;20035;-83
2023/10/27 04:22:11;;;;;;;37.58;14.32;;;8.30;99.90;;;;;;5078554;28;20118;-83
2023/10/27 04:24:37;;;;;;;44.35;16.00;;;8.30;99.90;;;;;;5064751;28;20395;-83
2023/10/27 04:27:03;;;;;;;36.90;16.05;;;8.30;99.90;;;;;;5080047;28;20076;-84
2023/10/27 04:29:29;;;;;;;33.15;13.05;;;8.30;99.90;;;;;;5081891;28;20084;-83
2023/10/27 04:31:54;;;;;;;29.63;12.80;;;8.30;99.90;;;;;;5081391;28;20028;-84
2023/10/27 04:34:20;;;;;;;35.10;13.70;;;8.30;99.90;;;;;;5092957;28;20028;-83
2023/10/27 04:36:46;;;;;;;30.67;11.15;;;8.30;99.90;;;;;;5115180;28;20031;-83
2023/10/27 04:39:11;;;;;;;28.42;12.05;;;8.20;99.90;;;;;;5060036;28;20035;-83
2023/10/27 04:41:37;;;;;;;30.27;12.35;;;8.20;99.90;;;;;;5083165;28;20084;-83
2023/10/27 04:44:04;;;;;;;42.67;14.13;;;8.10;99.90;;;;;;5063691;28;20445;-84
2023/10/27 04:46:29;;;;;;;31.90;13.57;;;8.10;99.90;;;;;;5080391;28;20475;-84
2023/10/27 04:48:58;;;;;;;32.05;13.70;;;8.10;99.90;;;;;;5077752;28;20089;-84
2023/10/27 04:51:30;;;;;;;29.25;14.10;;;8.10;99.90;;;;;;5083025;28;20038;-84
2023/10/27 04:54:23;;;;;;;36.60;14.02;;;8.10;99.90;;;;;;5097012;28;20024;-84
2023/10/27 04:56:49;;;;;;;33.05;15.05;;;8.10;99.90;;;;;;5105170;28;20028;-84
2023/10/27 04:59:14;;;;;;;46.35;18.88;;;8.10;99.90;;;;;;5080875;28;20035;-84
2023/10/27 05:01:40;;;;;;;54.30;21.25;;;8.10;99.90;;;;;;5078278;28;20114;-84
2023/10/27 05:04:06;;;;;;;47.72;20.45;;;8.10;99.90;;;;;;5083591;28;20067;-84
2023/10/27 05:06:33;;;;;;;49.55;24.35;;;8.10;99.90;;;;;;5079275;28;20437;-84
2023/10/27 05:08:58;;;;;;;52.45;21.13;;;8.10;99.90;;;;;;5077430;28;20042;-83
2023/10/27 05:11:24;;;;;;;35.15;16.98;;;8.10;99.90;;;;;;5080946;28;20027;-84
2023/10/27 05:13:50;;;;;;;31.50;15.13;;;8.10;99.90;;;;;;5080292;28;20397;-83
2023/10/27 05:16:31;;;;;;;41.15;16.17;;;8.10;99.90;;;;;;5070626;28;20064;-84
2023/10/27 05:18:57;;;;;;;38.20;16.83;;;8.10;99.90;;;;;;5085279;28;20063;-84
2023/10/27 05:21:26;;;;;;;41.10;18.35;;;8.20;99.90;;;;;;5058900;28;20444;-84
2023/10/27 05:23:56;;;;;;;36.85;18.08;;;8.20;99.90;;;;;;5086590;28;20036;-84
2023/10/27 05:26:22;;;;;;;42.90;18.75;;;8.20;99.90;;;;;;5081331;28;20516;-84
2023/10/27 05:28:49;;;;;;;40.80;18.88;;;8.20;99.90;;;;;;5082351;28;20543;-84
2023/10/27 05:31:14;;;;;;;46.08;19.30;;;8.10;99.90;;;;;;5098347;28;20047;-84
2023/10/27 05:33:40;;;;;;;32.22;18.95;;;8.20;99.90;;;;;;5092115;28;20024;-84
2023/10/27 05:36:06;;;;;;;44.33;20.63;;;8.20;99.90;;;;;;5081619;28;20529;-84
2023/10/27 05:39:03;;;;;;;34.83;19.65;;;8.20;99.90;;;;;;5087125;28;20027;-84
2023/10/27 05:41:29;;;;;;;45.20;21.77;;;8.20;99.90;;;;;;5082942;28;20040;-84
2023/10/27 05:43:55;;;;;;;59.92;21.27;;;8.30;99.90;;;;;;5080976;28;20032;-84
2023/10/27 05:46:21;;;;;;;38.92;18.60;;;8.30;99.90;;;;;;5086034;28;20436;-84
2023/10/27 05:48:47;;;;;;;31.65;15.15;;;8.30;99.90;;;;;;5084994;28;20328;-84
2023/10/27 05:51:12;;;;;;;31.83;15.40;;;8.30;99.90;;;;;;5080095;28;20026;-84
2023/10/27 05:53:38;;;;;;;28.85;16.20;;;8.30;99.90;;;;;;5087434;28;20039;-84
2023/10/27 05:56:04;;;;;;;17.73;11.52;;;8.30;99.90;;;;;;5066868;28;20039;-84
2023/10/27 05:58:33;;;;;;;24.25;12.40;;;8.30;99.90;;;;;;5083852;28;20032;-84
2023/10/27 06:01:00;;;;;;;16.77;10.15;;;8.30;99.90;;;;;;5073471;28;20036;-84
2023/10/27 06:03:25;;;;;;;19.90;11.07;;;8.30;99.90;;;;;;5113400;27;20505;-84
2023/10/27 06:05:54;;;;;;;22.02;9.85;;;8.40;99.90;;;;;;5079342;28;20025;-84
2023/10/27 06:08:19;;;;;;;16.67;9.80;;;8.30;99.90;;;;;;5082363;27;20084;-84
2023/10/27 06:10:45;;;;;;;22.10;8.25;;;8.40;99.90;;;;;;5060244;28;20023;-84
2023/10/27 06:13:12;;;;;;;12.98;6.00;;;8.40;99.90;;;;;;5072726;28;20024;-84
2023/10/27 06:15:38;;;;;;;9.07;5.03;;;8.40;99.90;;;;;;5099014;28;20031;-84
2023/10/27 06:18:04;;;;;;;8.02;4.53;;;8.30;99.90;;;;;;5101214;28;20028;-84
2023/10/27 06:20:29;;;;;;;11.45;4.55;;;8.30;99.90;;;;;;5080298;28;20032;-84
2023/10/27 06:22:55;;;;;;;7.75;4.20;;;8.30;99.90;;;;;;5086949;28;20023;-84
2023/10/27 06:25:25;;;;;;;6.80;4.03;;;8.20;99.90;;;;;;5094682;28;20035;-84
2023/10/27 06:27:52;;;;;;;13.35;4.82;;;8.30;99.90;;;;;;5089323;28;20114;-84
2023/10/27 06:30:20;;;;;;;5.60;3.88;;;8.30;99.90;;;;;;5113187;27;20838;-83
2023/10/27 06:32:47;;;;;;;9.80;4.05;;;8.30;99.90;;;;;;5083192;28;20047;-83
2023/10/27 06:35:13;;;;;;;7.22;3.42;;;8.30;99.90;;;;;;5091716;27;20017;-83
2023/10/27 06:37:39;;;;;;;7.28;3.20;;;8.30;99.90;;;;;;5108101;28;20035;-83
2023/10/27 06:40:05;;;;;;;7.45;2.92;;;8.30;99.90;;;;;;5061984;28;20040;-83
2023/10/27 06:42:31;;;;;;;12.40;3.10;;;8.30;99.90;;;;;;5092632;28;20360;-83
2023/10/27 06:44:57;;;;;;;5.80;3.55;;;8.30;99.90;;;;;;5067642;28;20039;-84
2023/10/27 06:47:22;;;;;;;4.18;2.70;;;8.40;99.90;;;;;;5101938;27;20029;-83
2023/10/27 06:49:48;;;;;;;8.45;3.28;;;8.30;99.90;;;;;;5074269;28;20040;-83
2023/10/27 06:52:14;;;;;;;6.38;3.13;;;8.30;99.90;;;;;;5108381;28;20039;-83
2023/10/27 06:54:43;;;;;;;6.95;3.28;;;8.30;99.90;;;;;;5072325;28;20084;-83
2023/10/27 06:57:10;;;;;;;9.52;3.30;;;8.20;99.90;;;;;;5057332;28;20030;-83
2023/10/27 06:59:35;;;;;;;5.70;2.70;;;8.20;99.90;;;;;;5115481;27;21295;-84
2023/10/27 07:02:03;;;;;;;16.90;6.45;;;8.10;99.90;;;;;;5085118;28;20046;-84
2023/10/27 07:04:28;;;;;;;6.10;3.58;;;8.10;99.90;;;;;;5068340;28;20034;-84
2023/10/27 07:06:54;;;;;;;7.53;2.97;;;8.20;99.90;;;;;;5115602;27;20538;-83
2023/10/27 07:09:20;;;;;;;15.27;5.97;;;8.20;99.90;;;;;;5102770;27;20467;-84
2023/10/27 07:11:45;;;;;;;10.25;5.90;;;8.10;99.90;;;;;;5069074;28;20012;-83
2023/10/27 07:14:14;;;;;;;12.43;6.30;;;8.20;99.90;;;;;;5113861;27;20069;-83
2023/10/27 07:16:41;;;;;;;11.27;6.30;;;8.20;99.90;;;;;;5094497;28;20021;-83
2023/10/27 07:19:07;;;;;;;15.88;7.25;;;8.20;99.90;;;;;;5063012;28;20027;-82
2023/10/27 07:21:34;;;;;;;18.42;7.72;;;8.20;99.90;;;;;;5102491;28;20387;-83
2023/10/27 07:24:00;;;;;;;8.63;5.47;;;8.30;99.90;;;;;;5064986;28;20027;-84
2023/10/27 07:26:26;;;;;;;14.35;6.78;;;8.20;99.90;;;;;;5063693;28;20028;-82
2023/10/27 07:28:52;;;;;;;24.17;11.88;;;8.20;99.90;;;;;;5076843;28;20086;-84
2023/10/27 07:31:17;;;;;;;18.30;7.88;;;8.30;99.90;;;;;;5062971;28;20062;-83
2023/10/27 07:33:43;;;;;;;29.65;16.42;;;8.30;99.90;;;;;;5074026;28;20490;-83
2023/10/27 07:36:12;;;;;;;30.08;15.73;;;8.30;99.90;;;;;;5059018;28;20028;-82
2023/10/27 07:38:38;;;;;;;18.15;10.25;;;8.30;99.90;;;;;;5072232;28;20336;-83
2023/10/27 07:41:04;;;;;;;15.45;8.32;;;8.30;99.90;;;;;;5058405;28;20042;-82
2023/10/27 07:43:31;;;;;;;12.98;8.65;;;8.20;99.90;;;;;;5063571;28;20122;-83
2023/10/27 07:45:56;;;;;;;12.45;8.23;;;8.20;99.90;;;;;;5076420;28;20053;-82
2023/10/27 07:48:23;;;;;;;13.48;8.68;;;8.30;99.90;;;;;;5064194;28;20731;-83
2023/10/27 07:50:48;;;;;;;18.38;10.07;;;8.30;99.90;;;;;;5069908;28;20367;-83
2023/10/27 07:53:14;;;;;;;13.57;9.20;;;8.30;99.90;;;;;;5064395;28;20035;-83
2023/10/27 07:55:40;;;;;;;12.27;8.55;;;8.30;99.90;;;;;;5073453;28;20375;-83
2023/10/27 07:58:06;;;;;;;14.07;8.70;;;8.40;99.90;;;;;;5079689;28;20097;-83
2023/10/27 08:00:32;;;;;;;16.05;9.80;;;8.40;99.90;;;;;;5077720;28;20103;-83
2023/10/27 08:02:58;;;;;;;11.57;8.50;;;8.30;99.90;;;;;;5064872;28;20788;-84
2023/10/27 08:05:24;;;;;;;13.45;8.98;;;8.30;99.90;;;;;;5101900;28;20038;-84
2023/10/27 08:07:50;;;;;;;13.65;9.30;;;8.40;99.90;;;;;;5068386;28;20036;-82
2023/10/27 08:10:16;;;;;;;17.77;9.80;;;8.30;99.90;;;;;;5074871;28;20402;-83
2023/10/27 08:12:42;;;;;;;15.52;9.57;;;8.30;99.90;;;;;;5079495;28;20111;-83
2023/10/27 08:15:09;;;;;;;15.40;9.45;;;8.30;99.90;;;;;;5094141;28;20035;-83
2023/10/27 08:17:36;;;;;;;11.98;9.40;;;8.30;99.90;;;;;;5096924;28;20097;-83
2023/10/27 08:20:05;;;;;;;12.75;9.02;;;8.20;99.90;;;;;;5064374;28;20522;-83
2023/10/27 08:22:32;;;;;;;17.77;10.48;;;8.20;99.90;;;;;;5073431;28;20038;-84
2023/10/27 08:24:58;;;;;;;17.65;9.27;;;8.20;99.90;;;;;;5077170;28;20040;-84
2023/10/27 08:27:24;;;;;;;18.35;11.68;;;8.30;99.90;;;;;;5097127;28;20158;-83
2023/10/27 08:29:54;;;;;;;13.98;8.30;;;8.30;99.90;;;;;;5079629;28;20498;-84
2023/10/27 08:32:21;;;;;;;12.07;6.85;;;8.30;99.90;;;;;;5058698;28;20114;-83
2023/10/27 08:34:47;;;;;;;7.30;6.03;;;8.30;99.90;;;;;;5079961;28;20027;-84
2023/10/27 08:37:13;;;;;;;7.35;6.47;;;8.40;99.90;;;;;;5061308;28;20395;-83
2023/10/27 08:39:39;;;;;;;13.48;7.78;;;8.50;99.90;;;;;;5077729;28;20032;-83
2023/10/27 08:42:07;;;;;;;9.68;6.97;;;8.60;99.90;;;;;;5081645;28;20030;-82
2023/10/27 08:44:33;;;;;;;6.78;5.63;;;8.50;99.90;;;;;;5061496;28;20040;-83
2023/10/27 08:46:59;;;;;;;10.80;6.97;;;8.50;99.90;;;;;;5066671;28;20074;-83
2023/10/27 08:49:25;;;;;;;9.10;6.85;;;8.50;99.90;;;;;;5066997;28;20064;-84
2023/10/27 08:51:51;;;;;;;10.25;7.20;;;8.50;99.90;;;;;;5067588;28;20028;-83
2023/10/27 08:54:16;;;;;;;13.50;7.22;;;8.50;99.90;;;;;;5065047;28;20028;-83
2023/10/27 08:56:43;;;;;;;8.00;4.45;;;8.50;99.90;;;;;;5069672;28;20798;-83
2023/10/27 08:59:11;;;;;;;6.38;4.63;;;8.50;99.90;;;;;;5071151;28;20114;-83
2023/10/27 09:01:37;;;;;;;8.50;4.05;;;8.40;99.90;;;;;;5088226;28;20037;-84
2023/10/27 09:04:13;;;;;;;5.00;3.38;;;8.40;99.90;;;;;;5066970;28;20035;-83
2023/10/27 09:06:40;;;;;;;7.93;4.45;;;8.40;99.90;;;;;;5058365;28;20039;-84
2023/10/27 09:09:07;;;;;;;4.20;3.08;;;8.40;99.90;;;;;;5084375;28;20039;-83
2023/10/27 09:11:44;;;;;;;7.25;4.30;;;8.40;99.90;;;;;;5069892;28;20020;-84
2023/10/27 09:14:18;;;;;;;13.10;5.18;;;8.40;99.90;;;;;;5063972;28;20038;-83
2023/10/27 09:16:44;;;;;;;16.35;9.00;;;8.40;99.90;;;;;;5070764;28;20020;-83
2023/10/27 09:19:21;;;;;;;7.40;4.78;;;8.40;99.90;;;;;;5117416;27;20352;-83
2023/10/27 09:21:47;;;;;;;8.35;4.35;;;8.40;99.90;;;;;;5061786;28;20051;-83
2023/10/27 09:24:23;;;;;;;4.50;3.25;;;8.40;99.90;;;;;;5086704;28;20020;-83
2023/10/27 09:26:49;;;;;;;7.22;3.58;;;8.40;99.90;;;;;;5068077;28;20031;-83
2023/10/27 09:29:16;;;;;;;6.40;3.60;;;8.40;99.90;;;;;;5064193;28;20839;-83
2023/10/27 09:31:43;;;;;;;5.05;2.83;;;8.40;99.90;;;;;;5102443;28;20408;-84
2023/10/27 09:34:23;;;;;;;6.20;2.70;;;8.40;99.90;;;;;;5112321;27;20048;-84
2023/10/27 09:36:51;;;;;;;3.40;2.55;;;8.40;99.90;;;;;;5070558;28;20551;-83
2023/10/27 09:39:25;;;;;;;6.70;3.42;;;8.30;99.90;;;;;;5114321;27;20095;-83
2023/10/27 09:42:03;;;;;;;4.95;2.97;;;8.40;99.90;;;;;;5076080;28;20028;-83
2023/10/27 09:45:02;;;;;;;11.00;3.50;;;8.30;99.90;;;;;;5076339;28;20043;-83
2023/10/27 09:47:38;;;;;;;4.22;3.30;;;8.40;99.90;;;;;;5093955;28;20059;-83
2023/10/27 09:50:06;;;;;;;8.57;4.15;;;8.30;99.90;;;;;;5078766;28;20110;-84
2023/10/27 09:52:33;;;;;;;8.70;5.05;;;8.30;99.90;;;;;;5064835;28;20040;-83
2023/10/27 09:55:03;;;;;;;9.55;5.13;;;8.40;99.90;;;;;;5074234;28;20020;-83
2023/10/27 09:57:29;;;;;;;7.43;4.78;;;8.40;99.90;;;;;;5059913;28;20028;-84
2023/10/27 09:59:59;;;;;;;8.07;5.30;;;8.30;99.90;;;;;;5075321;28;20415;-83
2023/10/27 10:02:26;;;;;;;8.90;4.75;;;8.40;99.90;;;;;;5076424;28;20534;-82
2023/10/27 10:04:51;;;;;;;10.07;4.85;;;8.40;99.90;;;;;;5059564;28;20055;-84
2023/10/27 10:07:31;;;;;;;6.65;4.93;;;8.50;99.90;;;;;;5093903;28;20071;-83
2023/10/27 10:10:17;;;;;;;7.10;4.80;;;8.50;99.90;;;;;;5052802;28;20020;-83
2023/10/27 10:13:06;;;;;;;8.27;5.10;;;8.50;99.90;;;;;;5073920;28;20040;-84
2023/10/27 10:15:37;;;;;;;9.15;5.03;;;8.70;99.90;;;;;;5073083;28;20036;-84
2023/10/27 10:18:08;;;;;;;13.20;8.07;;;8.90;99.90;;;;;;5082194;28;20035;-83
2023/10/27 10:20:49;;;;;;;18.30;10.25;;;8.90;99.90;;;;;;5083205;28;20043;-83
2023/10/27 10:23:16;;;;;;;11.02;7.63;;;9.00;99.90;;;;;;5077077;28;20050;-84
2023/10/27 10:25:52;;;;;;;7.85;6.00;;;8.90;99.90;;;;;;5104114;28;20026;-83
2023/10/27 10:28:17;;;;;;;9.10;6.07;;;8.90;99.90;;;;;;5116961;27;20031;-83
2023/10/27 10:31:09;;;;;;;11.57;6.55;;;8.90;99.90;;;;;;5086398;28;20030;-84
2023/10/27 10:33:37;;;;;;;12.20;6.65;;;9.00;99.90;;;;;;5091714;28;20027;-83
2023/10/27 10:36:12;;;;;;;8.98;5.43;;;9.00;99.90;;;;;;5056948;28;20031;-83
2023/10/27 10:38:43;;;;;;;13.55;6.05;;;9.10;99.90;;;;;;5101686;28;20024;-84
2023/10/27 10:41:09;;;;;;;;;;;9.30;99.90;;;;;;5077716;28;20039;-84
2023/10/27 10:43:38;;;;;;;10.93;5.20;;;9.40;99.90;;;;;;5117645;27;19915;-83
2023/10/27 10:46:11;;;;;;;8.45;4.40;;;9.50;99.90;;;;;;5067868;28;20032;-83
2023/10/27 10:48:41;;;;;;;9.43;4.32;;;9.80;99.90;;;;;;5067711;28;20390;-83
2023/10/27 10:51:13;;;;;;;12.98;4.20;;;10.00;99.90;;;;;;5078529;28;20031;-83
2023/10/27 10:54:29;;;;;;;7.88;3.60;;;10.10;99.90;;;;;;5083223;28;20028;-84
2023/10/27 10:57:02;;;;;;;12.32;3.75;;;10.20;99.90;;;;;;5108457;28;20069;-84
2023/10/27 10:59:28;;;;;;;12.50;2.50;;;10.20;99.90;;;;;;5061925;28;20480;-84
2023/10/27 11:01:55;;;;;;;5.38;2.47;;;10.30;99.90;;;;;;5068366;28;20038;-83
2023/10/27 11:04:28;;;;;;;7.07;3.42;;;10.40;99.90;;;;;;5063123;28;20032;-84
2023/10/27 11:07:18;;;;;;;5.53;2.70;;;10.10;99.90;;;;;;5085613;28;20031;-84
2023/10/27 11:09:44;;;;;;;7.28;3.10;;;10.10;99.90;;;;;;5102389;28;20038;-84
2023/10/27 11:12:23;;;;;;;8.75;3.10;;;10.10;99.90;;;;;;5059272;28;20028;-84
2023/10/27 11:14:49;;;;;;;6.75;3.55;;;10.00;99.90;;;;;;5081543;28;20034;-84
2023/10/27 11:17:15;;;;;;;3.35;2.83;;;9.90;99.90;;;;;;5080013;28;20028;-84
2023/10/27 11:19:54;;;;;;;9.07;2.83;;;9.80;99.90;;;;;;5112921;27;20094;-84
2023/10/27 11:22:24;;;;;;;8.85;3.85;;;9.80;99.90;;;;;;5065100;28;20089;-84
2023/10/27 11:24:50;;;;;;;13.68;3.50;;;9.80;99.90;;;;;;5061859;28;20020;-83
2023/10/27 11:27:26;;;;;;;13.30;4.20;;;9.90;99.90;;;;;;5067375;28;20074;-83
2023/10/27 11:30:02;;;;;;;9.25;4.45;;;10.00;99.90;;;;;;5063757;28;20036;-83
2023/10/27 11:32:28;;;;;;;7.70;4.13;;;9.80;99.90;;;;;;5061411;28;20073;-83
2023/10/27 11:34:57;;;;;;;10.52;4.97;;;9.70;99.90;;;;;;5116836;27;20482;-84
2023/10/27 11:37:23;;;;;;;13.35;4.80;;;9.60;99.90;;;;;;5058839;28;20036;-83
2023/10/27 11:39:50;;;;;;;12.98;3.85;;;9.60;99.90;;;;;;5063832;28;20032;-83
2023/10/27 11:42:18;;;;;;;11.60;5.22;;;9.50;99.90;;;;;;5058010;28;20493;-84
2023/10/27 11:44:45;;;;;;;10.02;5.63;;;9.50;99.90;;;;;;5062590;28;20110;-83
2023/10/27 11:47:10;;;;;;;14.75;7.10;;;9.60;99.90;;;;;;5065178;28;20032;-84
2023/10/27 11:49:36;;;;;;;18.58;7.57;;;9.70;99.90;;;;;;5056289;28;20077;-83
2023/10/27 11:52:03;;;;;;;42.95;17.83;;;9.70;99.90;;;;;;5073640;28;20028;-84
2023/10/27 11:54:29;;;;;;;35.10;13.13;;;9.80;99.90;;;;;;5074272;28;20050;-83
2023/10/27 11:56:54;;;;;;;18.05;7.25;;;9.90;99.90;;;;;;5071711;28;20023;-84
2023/10/27 11:59:24;;;;;;;17.65;6.65;;;10.00;99.90;;;;;;5094610;28;20027;-84
2023/10/27 12:01:51;;;;;;;9.55;4.93;;;10.20;99.90;;;;;;5074498;28;20024;-84
2023/10/27 12:04:16;;;;;;;18.10;5.18;;;10.40;99.90;;;;;;5077620;28;20047;-84
2023/10/27 12:06:43;;;;;;;14.23;5.05;;;10.20;99.90;;;;;;5066024;28;20020;-83
2023/10/27 12:09:09;;;;;;;14.30;4.97;;;10.20;99.90;;;;;;5074011;28;20032;-83
2023/10/27 12:11:36;;;;;;;15.88;5.00;;;10.20;99.90;;;;;;5073720;28;20032;-84
2023/10/27 12:14:02;;;;;;;14.90;5.32;;;10.00;99.90;;;;;;5097870;28;20028;-84
2023/10/27 12:16:29;;;;;;;11.27;4.95;;;10.00;99.90;;;;;;5057306;28;20119;-84
2023/10/27 12:18:58;;;;;;;12.63;5.00;;;9.90;99.90;;;;;;5107510;28;20031;-84
2023/10/27 12:21:36;;;;;;;9.48;4.95;;;10.00;99.90;;;;;;5074109;28;20028;-84
2023/10/27 12:24:02;;;;;;;16.67;4.63;;;10.10;99.90;;;;;;5077567;28;20033;-84
2023/10/27 12:26:27;;;;;;;8.57;4.07;;;10.10;99.90;;;;;;5076625;28;20446;-84
2023/10/27 12:28:53;;;;;;;16.55;4.45;;;10.20;99.90;;;;;;5066405;28;20023;-84
2023/10/27 12:31:19;;;;;;;12.82;4.30;;;10.30;99.90;;;;;;5067484;28;20024;-83
2023/10/27 12:33:45;;;;;;;15.15;4.63;;;10.10;99.90;;;;;;5097509;28;20415;-83
2023/10/27 12:36:12;;;;;;;15.35;4.85;;;10.00;99.90;;;;;;5078404;28;20028;-83
2023/10/27 12:38:41;;;;;;;12.02;4.63;;;9.90;99.90;;;;;;5078179;28;20024;-84
2023/10/27 12:41:07;;;;;;;20.52;6.90;;;9.90;99.90;;;;;;5077859;28;20032;-84
2023/10/27 12:43:33;;;;;;;17.17;5.65;;;9.80;99.90;;;;;;5077966;28;20425;-84
2023/10/27 12:46:03;;;;;;;12.00;4.38;;;9.80;99.90;;;;;;5059248;28;20028;-83